Grand Marais, MN

9:16 PM CST on November 16, 2019 (GMT -0600)
SundewTech | | Change Station
Active Advisory: Winter Weather Advisory

Elev 676 ft 47.75 °N, 90.34 °W | Updated 10 seconds ago

Mostly Cloudy
Mostly Cloudy
39 °F
Feels Like 39 °F
N
2
Wind Variable Wind from SW
Gusts 7.0 mph

Today
High -- | Low -- °F
--% Chance of Precip.
Yesterday
High -- | Low -- °F
Precip. -- in
Pressure 29.93 in
Visibility 10.0 miles
Clouds Mostly Cloudy 11000 ft
Windchill 39 °F
Dew Point 34 °F
Humidity 83%
Rainfall 0.01 in
Snow Depth Not available.
7:08 AM 4:23 PM
Waning Gibbous, 79% visible
METAR KCKC 170256Z AUTO 17007KT 10SM BKN110 01/M03 A2993 RMK AO2
Pressure 29.93 in
Visibility 10.0 miles
Clouds Mostly Cloudy 11000 ft
Windchill 39 °F
Dew Point 34 °F
Humidity 83%
Rainfall 0.01 in
Snow Depth Not available.
7:08 AM 4:23 PM
Waning Gibbous, 79% visible
METAR KCKC 170256Z AUTO 17007KT 10SM BKN110 01/M03 A2993 RMK AO2

Get Your Daily Forecast Email!

Thanks for signing up!

Be on the lookout for a verification email in your inbox.

You'll start receiving severe weather alerts in your inbox..

×

10-Day Weather Forecast

Almanac

Astronomy

Nov. 16, 2019 Rise Set
Actual Time
Civil Twilight
Nautical Twilight
Astronomical Twilight
Moon
Length of Visible Light
Length of Day
Tomorrow will be .
, % of the Moon is Illuminated

Today's Extremes

State Highs State Lows

Community

WunderPhotos

Category 6

Welcome to Category 6. This is the collective home for Weather Underground's featured writeups by Dr. Jeff Masters (right), Bob Henson (left), Chris Burt, and other regular contributors.

Nearby

Air Quality

  Air Quality AQ Index Pollutant
Not available.

Snow Depth

Station Depth Elevation

Earthquake Activity

City Distance Mag. Time & Date
Minimum magnitude displayed is 2.5.

Coastal Water Temperatures

Place Temperature

Stations

Nearby Weather Stations

Station Location Temp. Windchill Dew Point Humidity Wind Precip. Elev Updated Type
                   

Watches & Warnings

Winter Weather Advisory
Issued: 8:11 PM CST Nov. 16, 2019 – National Weather Service

... Winter Weather Advisory remains in effect until 10 am CST
Sunday...

* what... mixed precipitation expected. Total snow accumulations
of up to one inch and ice accumulations of a light glaze.

* Where... north and central St. Louis, Cook, and lake counties.
This includes the tribal lands of the Grand Portage reservation
and the Bois forte band, Nett Lake and, lake Vermillion areas.

* When... until 10 am CST Sunday.

* Impacts... plan on slippery Road conditions.

* Additional details... elevated surfaces, such as bridges, will
become icy before other surfaces, so use caution if traveling.

Precautionary/preparedness actions...

Slow down and use caution while traveling.

The latest Road conditions can be obtained by calling 5 1 1.
Road conditions can also be found at 511mn.Org for Minnesota or
511wi.Gov for Wisconsin.